馬公航空站 - ATIS

METAR RCQC 182330Z 03009KT 8000 FEW010 SCT025 BKN050 16/14 Q1021 NOSIG RMK A3016=

站台狀態:Online
最後更新:2019-01-19 07:30:02